Port Allen, Louisiana
Current Conditions -  °F | °C
As of 3:53 AM on Thursday 23 Oct 2014 (Local Time) from KBTR Reporting Station
Clear Clear  
Wind Chill: 52°   Ceiling: Unl
Heat Index: 52°   Visibility: 10mi
Dew Point: 48°   Wind: 5mph
Humidity: 86%   Direction: 50°NE
Pressure: 30.08"   Gusts: NA
Location:  30.46°N, 91.21°W
Report Text: KBTR 230853Z 05004KT 10SM CLR 11/09 A3008 RMK AO2 SLP185 T01110089 58003
Loading
Personal Weather Stations






























Interactive Weather Map
Tropical Storm Tracking
New forecast layout! Learn more

10-Day Weather Forecast

Advertisements
Track Severe Weather on mobile